Time;durP1;ratioP1;P1;durP2;ratioP2;P2;SDS_P1;SDS_P2;PMS_P1;PMS_P2;Temp;Humidity;BMP_temperature;BMP_pressure;BME280_temperature;BME280_humidity;BME280_pressure;Samples;Min_cycle;Max_cycle;Signal;HPM_P1;HPM_P2
2022/05/22 00:02:03;;;;;;;12.20;4.72;;;10.30;88.00;;;;;;5041471;28;20037;-43
2022/05/22 00:04:29;;;;;;;11.02;4.78;;;10.20;87.90;;;;;;5050552;28;20029;-43
2022/05/22 00:06:58;;;;;;;9.75;4.65;;;10.30;87.90;;;;;;5033495;28;20026;-42
2022/05/22 00:09:28;;;;;;;17.83;5.15;;;10.20;88.00;;;;;;5020062;28;20363;-45
2022/05/22 00:11:53;;;;;;;;;;;10.20;87.90;;;;;;5043054;28;20454;-44
2022/05/22 00:14:21;;;;;;;8.43;4.57;;;10.10;88.00;;;;;;5049298;28;19909;-43
2022/05/22 00:16:47;;;;;;;12.73;5.20;;;10.10;88.00;;;;;;5029888;28;20029;-43
2022/05/22 00:19:15;;;;;;;15.85;6.07;;;10.10;88.20;;;;;;5030317;28;20021;-46
2022/05/22 00:21:44;;;;;;;11.50;6.35;;;10.10;88.10;;;;;;5035391;28;20100;-44
2022/05/22 00:24:11;;;;;;;12.25;5.38;;;10.00;88.10;;;;;;5042147;28;20130;-43
2022/05/22 00:26:40;;;;;;;10.77;4.97;;;10.00;88.30;;;;;;5037285;28;20072;-42
2022/05/22 00:29:07;;;;;;;13.10;5.68;;;10.00;88.20;;;;;;5028294;28;20431;-43
2022/05/22 00:31:33;;;;;;;9.35;4.97;;;10.00;88.20;;;;;;5036480;28;20044;-42
2022/05/22 00:33:59;;;;;;;14.55;5.90;;;10.00;88.20;;;;;;5049789;28;20397;-46
2022/05/22 00:36:25;;;;;;;12.60;5.28;;;10.00;88.30;;;;;;5048071;28;20033;-44
2022/05/22 00:38:51;;;;;;;10.65;4.50;;;10.00;88.30;;;;;;5044150;28;20029;-43
2022/05/22 00:41:17;;;;;;;12.43;5.22;;;9.90;88.40;;;;;;5042880;28;20047;-42
2022/05/22 00:43:53;;;;;;;11.23;4.93;;;9.90;88.50;;;;;;5049561;28;20025;-42
2022/05/22 00:46:23;;;;;;;10.48;5.30;;;9.90;88.40;;;;;;5046742;28;20402;-44
2022/05/22 00:48:53;;;;;;;;;;;9.90;88.50;;;;;;5045839;28;20521;-42
2022/05/22 00:51:20;;;;;;;15.02;5.63;;;9.90;88.50;;;;;;5048501;28;19970;-43
2022/05/22 00:53:55;;;;;;;12.93;7.03;;;9.90;88.50;;;;;;5028934;28;20361;-45
2022/05/22 00:56:27;;;;;;;9.63;5.50;;;9.90;88.50;;;;;;5029486;28;20488;-43
2022/05/22 00:58:55;;;;;;;10.68;6.05;;;9.90;88.50;;;;;;5028456;28;20041;-43
2022/05/22 01:01:21;;;;;;;9.45;4.93;;;9.90;88.50;;;;;;5035660;28;20354;-42
2022/05/22 01:03:48;;;;;;;12.05;6.05;;;9.90;88.50;;;;;;5049261;28;20048;-41
2022/05/22 01:06:20;;;;;;;9.85;4.90;;;9.80;88.40;;;;;;5046830;28;20037;-42
2022/05/22 01:08:47;;;;;;;10.20;5.13;;;9.80;88.50;;;;;;5041378;28;20060;-43
2022/05/22 01:11:28;;;;;;;10.70;5.75;;;9.80;88.60;;;;;;5048424;28;20100;-43
2022/05/22 01:14:01;;;;;;;13.23;4.93;;;9.70;88.60;;;;;;5047482;28;20036;-42
2022/05/22 01:16:26;;;;;;;11.70;4.82;;;9.70;88.60;;;;;;5030189;28;20111;-43
2022/05/22 01:18:54;;;;;;;16.27;6.43;;;9.70;88.60;;;;;;5032200;28;20038;-42
2022/05/22 01:21:24;;;;;;;7.10;4.82;;;9.70;88.60;;;;;;5028160;28;20405;-43
2022/05/22 01:23:50;;;;;;;12.90;5.80;;;9.60;88.60;;;;;;5029912;28;20037;-42
2022/05/22 01:26:17;;;;;;;11.00;5.15;;;9.60;88.70;;;;;;5048244;28;20029;-43
2022/05/22 01:28:43;;;;;;;11.13;6.03;;;9.60;88.70;;;;;;5033745;28;20053;-42
2022/05/22 01:31:09;;;;;;;11.20;5.57;;;9.50;88.80;;;;;;5027591;28;20084;-43
2022/05/22 01:33:36;;;;;;;17.50;6.75;;;9.50;88.80;;;;;;5029097;28;20076;-42
2022/05/22 01:36:02;;;;;;;10.90;6.15;;;9.50;88.80;;;;;;5037594;28;20079;-43
2022/05/22 01:38:28;;;;;;;13.52;5.63;;;9.60;88.70;;;;;;5028152;28;20036;-42
2022/05/22 01:40:53;;;;;;;9.10;4.68;;;9.50;88.60;;;;;;5035072;28;20349;-41
2022/05/22 01:43:19;;;;;;;10.60;5.20;;;9.50;88.50;;;;;;5052390;28;20036;-43
2022/05/22 01:45:45;;;;;;;14.95;6.00;;;9.40;88.50;;;;;;5040967;28;20350;-43
2022/05/22 01:48:15;;;;;;;9.00;5.97;;;9.40;88.60;;;;;;5046177;28;20029;-41
2022/05/22 01:50:46;;;;;;;11.05;4.85;;;9.40;88.80;;;;;;5040119;28;20133;-41
2022/05/22 01:53:12;;;;;;;15.48;6.28;;;9.40;88.60;;;;;;5031768;28;20033;-42
2022/05/22 01:55:38;;;;;;;11.75;5.47;;;9.40;88.50;;;;;;5031651;28;20025;-41
2022/05/22 01:58:06;;;;;;;11.35;5.10;;;9.30;88.60;;;;;;5032687;28;20350;-43
2022/05/22 02:00:35;;;;;;;13.43;5.07;;;9.30;88.70;;;;;;5031727;28;20037;-41
2022/05/22 02:03:01;;;;;;;9.10;5.03;;;9.40;88.70;;;;;;5032335;28;20056;-42
2022/05/22 02:05:27;;;;;;;8.90;4.57;;;9.40;88.60;;;;;;5036288;28;20147;-41
2022/05/22 02:10:38;;;;;;;11.93;5.75;;;9.30;88.60;;;;;;5037855;28;20090;-43
2022/05/22 02:13:05;;;;;;;10.38;4.93;;;9.30;88.60;;;;;;5052561;28;20040;-41
2022/05/22 02:15:30;;;;;;;12.45;5.32;;;9.30;88.60;;;;;;5041577;28;20032;-41
2022/05/22 02:18:01;;;;;;;9.02;5.60;;;9.30;88.70;;;;;;5051901;28;20026;-43
2022/05/22 02:20:27;;;;;;;13.40;6.28;;;9.30;88.70;;;;;;5050434;28;20032;-42
2022/05/22 02:22:56;;;;;;;14.20;5.63;;;9.20;88.80;;;;;;5046146;28;20033;-41
2022/05/22 02:25:28;;;;;;;13.48;5.95;;;9.20;88.90;;;;;;5030744;28;20025;-41
2022/05/22 02:27:56;;;;;;;13.95;6.20;;;9.20;88.80;;;;;;5032535;28;20029;-43
2022/05/22 02:30:25;;;;;;;9.80;4.90;;;9.20;88.80;;;;;;5030311;28;20036;-43
2022/05/22 02:32:51;;;;;;;13.48;5.93;;;9.10;88.80;;;;;;5046133;28;20025;-42
2022/05/22 02:35:17;;;;;;;13.50;5.35;;;9.10;88.90;;;;;;5044189;28;20028;-42
2022/05/22 02:37:48;;;;;;;10.88;6.20;;;9.10;88.80;;;;;;5031027;28;20025;-41
2022/05/22 02:40:17;;;;;;;11.13;5.22;;;9.10;88.90;;;;;;5047322;28;20032;-41
2022/05/22 02:42:46;;;;;;;13.35;5.47;;;9.10;88.90;;;;;;5043380;28;20065;-42
2022/05/22 02:45:13;;;;;;;9.45;5.60;;;9.00;88.70;;;;;;5044219;28;20068;-41
2022/05/22 02:47:39;;;;;;;9.90;6.32;;;9.00;88.80;;;;;;5050919;28;20111;-41
2022/05/22 02:50:06;;;;;;;16.80;5.90;;;9.00;88.90;;;;;;5049802;28;20117;-41
2022/05/22 02:52:32;;;;;;;5.72;5.05;;;8.90;88.80;;;;;;5044914;28;20136;-41
2022/05/22 02:54:59;;;;;;;10.68;5.45;;;8.90;88.70;;;;;;5037695;28;20518;-42
2022/05/22 02:57:25;;;;;;;11.32;4.80;;;8.90;88.70;;;;;;5028475;28;20139;-41
2022/05/22 02:59:52;;;;;;;11.77;5.88;;;8.90;88.80;;;;;;5029280;28;20067;-42
2022/05/22 03:02:19;;;;;;;8.70;4.93;;;8.90;88.80;;;;;;5031505;28;20030;-42
2022/05/22 03:04:45;;;;;;;8.88;5.30;;;8.90;88.80;;;;;;5030125;28;20115;-41
2022/05/22 03:07:13;;;;;;;9.82;5.40;;;8.80;88.80;;;;;;5030694;28;20033;-42
2022/05/22 03:09:41;;;;;;;7.72;4.85;;;8.80;88.80;;;;;;5030068;28;20117;-41
2022/05/22 03:12:15;;;;;;;15.77;5.75;;;8.80;88.80;;;;;;5032882;28;20024;-41
2022/05/22 03:14:45;;;;;;;9.95;5.00;;;8.80;88.90;;;;;;5011902;28;20453;-42
2022/05/22 03:17:11;;;;;;;7.68;5.15;;;8.70;88.90;;;;;;5029965;28;20099;-42
2022/05/22 03:19:37;;;;;;;8.27;5.10;;;8.80;89.00;;;;;;5030272;28;20049;-41
2022/05/22 03:22:06;;;;;;;13.88;5.47;;;8.80;88.90;;;;;;5009358;28;20033;-41
2022/05/22 03:24:32;;;;;;;9.73;5.45;;;8.80;88.90;;;;;;5030305;28;20032;-41
2022/05/22 03:27:00;;;;;;;7.40;4.93;;;8.80;88.90;;;;;;5031628;28;20033;-43
2022/05/22 03:29:26;;;;;;;10.88;5.80;;;8.80;89.00;;;;;;5028987;28;20025;-41
2022/05/22 03:31:51;;;;;;;13.43;6.00;;;8.80;88.90;;;;;;5033207;28;20047;-41
2022/05/22 03:34:17;;;;;;;8.35;5.03;;;8.80;88.90;;;;;;5049817;28;20021;-41
2022/05/22 03:36:43;;;;;;;11.48;5.32;;;8.80;89.00;;;;;;5028427;28;20113;-42
2022/05/22 03:39:11;;;;;;;7.97;5.72;;;8.80;88.90;;;;;;5039527;28;20029;-40
2022/05/22 03:41:37;;;;;;;15.40;6.15;;;8.80;88.90;;;;;;5028136;28;20413;-41
2022/05/22 03:44:05;;;;;;;14.45;5.30;;;8.90;88.90;;;;;;5028982;28;20521;-43
2022/05/22 03:46:32;;;;;;;11.63;6.75;;;8.90;89.00;;;;;;5017790;28;20037;-41
2022/05/22 03:48:58;;;;;;;10.35;5.90;;;8.90;89.00;;;;;;5012314;28;20030;-43
2022/05/22 03:51:23;;;;;;;9.63;5.18;;;8.90;88.90;;;;;;5028266;28;20093;-41
2022/05/22 03:53:49;;;;;;;9.05;4.90;;;8.90;88.90;;;;;;5028293;28;20057;-44
2022/05/22 03:56:16;;;;;;;8.52;4.82;;;8.90;88.90;;;;;;5029415;28;20021;-41
2022/05/22 03:58:42;;;;;;;8.50;5.13;;;9.00;88.90;;;;;;5029624;28;20366;-40
2022/05/22 04:01:08;;;;;;;6.38;4.32;;;9.10;88.80;;;;;;5028942;28;20370;-45
2022/05/22 04:03:35;;;;;;;10.68;5.35;;;9.10;88.70;;;;;;5039228;28;20025;-42
2022/05/22 04:06:07;;;;;;;10.82;4.85;;;9.10;88.60;;;;;;5031110;28;20033;-40
2022/05/22 04:08:33;;;;;;;8.85;4.82;;;9.20;88.60;;;;;;5029359;28;20076;-41
2022/05/22 04:11:10;;;;;;;11.88;5.43;;;9.20;88.50;;;;;;5029888;28;20424;-42
2022/05/22 04:13:37;;;;;;;9.90;5.25;;;9.20;88.60;;;;;;5029590;28;20194;-41
2022/05/22 04:16:03;;;;;;;9.45;5.40;;;9.20;88.50;;;;;;5028920;28;20030;-41
2022/05/22 04:18:29;;;;;;;9.68;5.22;;;9.30;88.50;;;;;;5030019;28;20037;-42
2022/05/22 04:20:57;;;;;;;9.32;5.05;;;9.30;88.60;;;;;;5029540;28;20041;-41
2022/05/22 04:26:08;;;;;;;11.07;5.35;;;9.40;88.50;;;;;;5029123;28;20051;-41
2022/05/22 04:28:34;;;;;;;9.20;5.35;;;9.40;88.40;;;;;;5030069;28;20094;-41
2022/05/22 04:31:03;;;;;;;9.90;4.95;;;9.40;88.30;;;;;;5027758;28;20108;-41
2022/05/22 04:33:29;;;;;;;10.65;5.13;;;9.40;88.20;;;;;;5038847;28;20035;-42
2022/05/22 04:35:55;;;;;;;7.85;4.95;;;9.50;88.30;;;;;;5037917;28;20108;-41
2022/05/22 04:38:21;;;;;;;8.73;4.57;;;9.40;88.00;;;;;;5028648;28;20408;-42
2022/05/22 04:40:58;;;;;;;9.23;4.85;;;9.50;88.20;;;;;;5031869;28;20025;-43
2022/05/22 04:43:25;;;;;;;9.02;4.70;;;9.50;88.10;;;;;;5033529;28;20026;-40
2022/05/22 04:45:51;;;;;;;9.57;4.93;;;9.40;88.20;;;;;;5029188;28;20112;-41
2022/05/22 04:48:17;;;;;;;9.52;5.15;;;9.50;88.20;;;;;;5028699;28;20056;-40
2022/05/22 04:50:50;;;;;;;7.15;5.07;;;9.50;88.20;;;;;;5027039;28;20053;-42
2022/05/22 04:53:18;;;;;;;9.80;6.32;;;9.60;88.20;;;;;;5024841;28;20047;-41
2022/05/22 04:55:44;;;;;;;8.77;5.25;;;9.60;88.20;;;;;;5027261;28;20098;-41
2022/05/22 04:58:09;;;;;;;18.00;5.43;;;9.60;88.00;;;;;;5027183;28;20120;-42
2022/05/22 05:00:35;;;;;;;13.80;5.28;;;9.70;88.10;;;;;;5040480;28;20130;-41
2022/05/22 05:03:01;;;;;;;9.02;5.65;;;9.80;88.10;;;;;;5029007;28;20033;-41
2022/05/22 05:05:28;;;;;;;8.98;5.45;;;9.90;88.20;;;;;;5027300;28;20048;-42
2022/05/22 05:07:54;;;;;;;13.00;6.55;;;9.90;88.00;;;;;;5036839;28;20629;-42
2022/05/22 05:10:20;;;;;;;12.25;6.65;;;9.90;87.90;;;;;;5028378;28;20040;-41
2022/05/22 05:12:46;;;;;;;11.10;5.20;;;10.00;87.90;;;;;;5045746;28;20505;-41
2022/05/22 05:15:15;;;;;;;11.15;6.10;;;10.10;88.00;;;;;;5029344;28;20086;-41
2022/05/22 05:17:42;;;;;;;7.85;5.07;;;10.20;87.90;;;;;;5026766;28;20034;-41
2022/05/22 05:20:09;;;;;;;9.60;5.57;;;10.20;87.90;;;;;;5027195;28;20501;-42
2022/05/22 05:22:34;;;;;;;10.18;6.43;;;10.30;87.90;;;;;;5028926;28;20025;-44
2022/05/22 05:25:00;;;;;;;10.02;5.95;;;10.30;87.80;;;;;;5027309;28;20127;-40
2022/05/22 05:27:26;;;;;;;7.57;6.07;;;10.40;87.90;;;;;;5027202;28;20053;-41
2022/05/22 05:29:52;;;;;;;7.65;5.55;;;10.50;87.80;;;;;;5026548;28;20068;-43
2022/05/22 05:32:23;;;;;;;9.05;5.47;;;10.50;87.80;;;;;;5009614;28;20036;-40
2022/05/22 05:34:59;;;;;;;13.57;5.85;;;10.60;88.00;;;;;;5025707;28;20060;-41
2022/05/22 05:37:26;;;;;;;8.73;5.82;;;10.70;87.80;;;;;;5033274;28;20377;-41
2022/05/22 05:39:52;;;;;;;8.75;5.20;;;10.90;87.60;;;;;;5029339;28;20038;-40
2022/05/22 05:42:18;;;;;;;15.90;6.50;;;11.20;87.70;;;;;;5018980;28;20462;-41
2022/05/22 05:44:44;;;;;;;10.15;5.22;;;11.50;87.40;;;;;;5041134;28;20137;-42
2022/05/22 05:47:11;;;;;;;10.80;4.65;;;11.80;86.60;;;;;;5028607;28;20040;-42
2022/05/22 05:49:37;;;;;;;7.75;4.30;;;12.20;85.60;;;;;;5026793;28;20026;-43
2022/05/22 05:52:06;;;;;;;5.03;3.28;;;12.60;84.70;;;;;;5033509;28;20029;-41
2022/05/22 05:54:34;;;;;;;7.72;3.42;;;12.90;84.70;;;;;;5044604;28;20037;-42
2022/05/22 05:57:00;;;;;;;9.05;3.85;;;12.80;83.60;;;;;;5027900;28;20036;-44
2022/05/22 05:59:26;;;;;;;9.60;4.07;;;12.70;83.00;;;;;;5039713;28;20342;-42
2022/05/22 06:01:52;;;;;;;6.90;3.60;;;12.60;83.40;;;;;;5025335;28;20025;-41
2022/05/22 06:04:18;;;;;;;10.02;3.78;;;12.70;83.60;;;;;;5028779;28;20029;-43
2022/05/22 06:06:44;;;;;;;11.13;5.38;;;12.60;83.50;;;;;;5028112;28;20029;-43
2022/05/22 06:09:09;;;;;;;11.63;3.78;;;12.60;83.70;;;;;;5008114;28;20048;-42
2022/05/22 06:11:35;;;;;;;7.60;4.22;;;12.70;84.00;;;;;;5035741;28;20108;-42
2022/05/22 06:14:00;;;;;;;7.05;3.67;;;12.70;84.00;;;;;;5045176;28;20033;-42
2022/05/22 06:16:26;;;;;;;10.18;3.58;;;12.80;84.10;;;;;;5035468;28;20028;-42
2022/05/22 06:18:52;;;;;;;8.65;3.70;;;12.90;84.20;;;;;;5026126;28;20458;-42
2022/05/22 06:21:19;;;;;;;8.23;3.63;;;12.90;84.10;;;;;;5028746;28;20032;-42
2022/05/22 06:23:45;;;;;;;6.85;3.60;;;12.90;83.90;;;;;;5037906;28;20396;-42
2022/05/22 06:26:14;;;;;;;8.63;3.63;;;13.00;83.50;;;;;;5037717;28;20374;-41
2022/05/22 06:28:41;;;;;;;8.85;4.22;;;13.00;83.50;;;;;;5048822;28;20063;-41
2022/05/22 06:31:08;;;;;;;9.15;3.20;;;13.00;83.70;;;;;;5035309;28;20104;-41
2022/05/22 06:33:35;;;;;;;9.88;2.92;;;13.20;83.90;;;;;;5049467;28;20059;-44
2022/05/22 06:36:08;;;;;;;7.03;3.70;;;13.20;83.70;;;;;;5049821;28;20545;-42
2022/05/22 06:41:20;;;;;;;11.60;3.60;;;13.40;82.90;;;;;;5050958;28;20032;-43
2022/05/22 06:43:49;;;;;;;13.98;4.28;;;13.40;83.10;;;;;;5041548;28;20117;-42
2022/05/22 06:46:16;;;;;;;11.18;3.75;;;13.40;82.30;;;;;;5032050;28;20351;-42
2022/05/22 06:48:42;;;;;;;5.55;2.75;;;13.50;83.20;;;;;;5030733;28;20061;-43
2022/05/22 06:51:07;;;;;;;7.50;3.75;;;13.60;82.70;;;;;;5041258;28;20418;-44
2022/05/22 06:53:35;;;;;;;9.63;3.28;;;13.70;83.10;;;;;;5049952;28;20062;-43
2022/05/22 06:56:04;;;;;;;10.77;3.38;;;13.80;81.90;;;;;;5044420;28;20037;-43
2022/05/22 06:58:31;;;;;;;10.05;3.00;;;13.90;81.30;;;;;;5030416;28;20061;-43
2022/05/22 07:00:58;;;;;;;8.57;3.00;;;14.00;81.10;;;;;;5028907;28;20029;-44
2022/05/22 07:03:25;;;;;;;11.35;3.42;;;14.00;80.70;;;;;;5049801;28;20068;-43
2022/05/22 07:05:54;;;;;;;8.27;4.15;;;14.20;81.20;;;;;;5048379;28;20033;-43
2022/05/22 07:08:21;;;;;;;9.35;3.42;;;14.40;81.30;;;;;;5048461;28;20052;-44
2022/05/22 07:13:33;;;;;;;6.93;2.20;;;14.70;77.50;;;;;;5051510;28;20350;-44
2022/05/22 07:16:05;;;;;;;10.90;2.85;;;14.80;76.30;;;;;;5048246;28;20037;-46
2022/05/22 07:18:32;;;;;;;6.18;2.20;;;14.80;76.60;;;;;;5048574;28;20028;-45
2022/05/22 07:20:59;;;;;;;6.18;2.58;;;15.00;77.10;;;;;;5036937;28;20389;-43
2022/05/22 07:23:26;;;;;;;9.20;2.25;;;15.40;75.90;;;;;;5029206;28;20033;-44
2022/05/22 07:25:53;;;;;;;5.38;1.98;;;15.30;72.40;;;;;;5034766;28;20032;-44
2022/05/22 07:28:21;;;;;;;8.50;2.25;;;15.20;72.60;;;;;;5047660;28;20527;-44
2022/05/22 07:30:47;;;;;;;9.13;1.77;;;15.10;72.70;;;;;;5042171;28;20025;-45
2022/05/22 07:33:14;;;;;;;10.18;1.90;;;15.10;72.10;;;;;;5049834;28;20024;-44
2022/05/22 07:35:41;;;;;;;8.75;2.08;;;15.90;72.60;;;;;;5031578;28;20055;-44
2022/05/22 07:38:07;;;;;;;8.00;2.35;;;16.90;69.30;;;;;;5011441;28;20095;-43
2022/05/22 07:40:34;;;;;;;10.32;2.25;;;17.70;67.50;;;;;;5036547;28;20079;-45
2022/05/22 07:43:01;;;;;;;6.18;2.00;;;18.50;64.90;;;;;;5041744;28;20029;-45
2022/05/22 07:45:30;;;;;;;5.07;1.90;;;18.50;61.10;;;;;;5048087;28;20063;-45
2022/05/22 07:47:58;;;;;;;;;;;18.30;63.00;;;;;;5030256;28;20033;-45
2022/05/22 07:50:23;;;;;;;9.00;2.65;;;18.00;62.40;;;;;;5031710;28;19931;-45
2022/05/22 07:52:50;;;;;;;8.00;2.20;;;17.40;62.10;;;;;;5037670;28;20036;-46
2022/05/22 07:55:21;;;;;;;8.68;2.90;;;17.20;65.70;;;;;;5048705;28;20032;-45
2022/05/22 07:57:49;;;;;;;4.45;2.00;;;16.70;65.10;;;;;;5031893;28;20450;-47
2022/05/22 08:00:18;;;;;;;6.15;2.05;;;16.20;67.60;;;;;;5027332;28;20430;-43
2022/05/22 08:02:46;;;;;;;8.23;2.50;;;16.00;69.40;;;;;;5015262;28;20036;-44
2022/05/22 08:05:17;;;;;;;9.15;2.00;;;15.80;69.60;;;;;;5029486;28;20220;-44
2022/05/22 08:07:44;;;;;;;7.80;2.20;;;15.80;70.10;;;;;;5048336;28;20031;-45
2022/05/22 08:10:13;;;;;;;10.20;2.53;;;16.00;69.70;;;;;;5048180;28;20048;-44
2022/05/22 08:12:42;;;;;;;8.13;2.50;;;16.90;68.70;;;;;;5029883;28;20025;-44
2022/05/22 08:15:10;;;;;;;8.13;2.45;;;18.10;67.00;;;;;;5029188;28;20042;-45
2022/05/22 08:17:41;;;;;;;6.78;2.30;;;19.00;63.00;;;;;;5029915;28;20072;-46
2022/05/22 08:20:14;;;;;;;6.13;1.67;;;20.00;60.20;;;;;;5030218;28;20035;-45
2022/05/22 08:22:45;;;;;;;8.70;1.75;;;20.20;55.50;;;;;;5032975;28;20035;-46
2022/05/22 08:25:19;;;;;;;6.25;1.50;;;19.90;55.10;;;;;;5029700;28;20516;-45
2022/05/22 08:27:48;;;;;;;6.25;2.10;;;19.50;55.40;;;;;;5030200;28;20029;-46
2022/05/22 08:30:17;;;;;;;6.90;1.50;;;18.90;57.50;;;;;;5031857;28;20030;-45
2022/05/22 08:32:46;;;;;;;7.55;2.08;;;18.40;59.00;;;;;;5048530;28;20447;-47
2022/05/22 08:35:16;;;;;;;7.25;2.13;;;18.00;59.30;;;;;;5029634;28;20029;-47
2022/05/22 08:37:43;;;;;;;6.80;1.90;;;18.40;59.50;;;;;;5048759;28;20057;-46
2022/05/22 08:40:12;;;;;;;3.75;1.52;;;19.20;56.20;;;;;;5032812;28;20085;-45
2022/05/22 08:43:02;;;;;;;6.53;2.17;;;19.50;54.10;;;;;;5045638;28;20034;-45
2022/05/22 08:45:43;;;;;;;6.85;2.05;;;20.40;53.30;;;;;;5049917;28;20052;-48
2022/05/22 08:48:57;;;;;;;6.72;1.85;;;20.60;52.90;;;;;;5046471;28;20594;-45
2022/05/22 08:51:30;;;;;;;6.80;2.25;;;19.90;53.30;;;;;;5043161;28;20072;-47
2022/05/22 08:54:01;;;;;;;7.28;1.80;;;20.10;57.60;;;;;;5049962;28;20033;-46
2022/05/22 08:59:29;;;;;;;4.97;1.52;;;21.50;52.10;;;;;;5033266;28;20080;-45
2022/05/22 09:02:25;;;;;;;7.35;2.05;;;20.90;49.80;;;;;;5028895;28;20029;-47
2022/05/22 09:05:06;;;;;;;5.65;2.03;;;19.80;53.20;;;;;;5043610;28;20041;-47
2022/05/22 09:07:59;;;;;;;3.83;1.55;;;19.10;53.70;;;;;;5031030;28;20033;-46
2022/05/22 09:10:49;;;;;;;5.22;1.55;;;18.60;56.00;;;;;;5028788;28;20018;-45
2022/05/22 09:13:31;;;;;;;7.75;1.92;;;18.50;59.10;;;;;;5026817;28;20033;-45
2022/05/22 09:16:28;;;;;;;4.93;1.67;;;18.30;60.30;;;;;;5036546;28;20049;-45
2022/05/22 09:19:19;;;;;;;4.72;1.38;;;19.00;58.70;;;;;;5008263;28;20095;-45
2022/05/22 09:22:00;;;;;;;6.10;1.33;;;19.70;55.80;;;;;;5018433;28;20040;-45
2022/05/22 09:24:47;;;;;;;4.90;1.58;;;20.60;55.50;;;;;;5011964;28;20033;-46
2022/05/22 09:27:27;;;;;;;4.93;1.70;;;21.40;51.90;;;;;;5022505;28;20064;-45
2022/05/22 09:30:28;;;;;;;4.53;1.58;;;22.40;48.80;;;;;;5029485;28;20033;-48
2022/05/22 09:33:22;;;;;;;6.35;2.20;;;22.90;47.30;;;;;;5028297;28;20033;-46
2022/05/22 09:36:06;;;;;;;6.32;1.60;;;22.40;46.90;;;;;;5020748;28;20053;-46
2022/05/22 09:38:57;;;;;;;6.60;1.63;;;21.70;46.50;;;;;;5048234;28;20448;-46
2022/05/22 09:41:31;;;;;;;5.30;1.52;;;20.40;48.20;;;;;;5024308;28;20033;-45
2022/05/22 09:44:28;;;;;;;4.38;1.50;;;19.60;50.60;;;;;;5027771;28;20140;-45
2022/05/22 09:47:21;;;;;;;6.00;1.60;;;19.90;51.30;;;;;;5026508;28;20087;-50
2022/05/22 09:50:22;;;;;;;4.53;1.52;;;20.60;49.10;;;;;;5009442;28;20033;-45
2022/05/22 09:53:14;;;;;;;5.32;1.60;;;21.40;50.50;;;;;;5021243;28;20036;-45
2022/05/22 09:55:51;;;;;;;6.30;1.88;;;21.10;51.70;;;;;;5034189;28;20131;-46
2022/05/22 09:58:54;;;;;;;7.80;2.03;;;20.90;48.70;;;;;;5029210;28;20035;-46
2022/05/22 10:01:43;;;;;;;5.30;1.63;;;19.50;52.40;;;;;;5026277;28;20029;-47
2022/05/22 10:04:27;;;;;;;;;;;19.40;56.50;;;;;;5011177;28;20470;-45
2022/05/22 10:07:15;;;;;;;7.00;1.85;;;19.40;55.30;;;;;;5037964;28;19908;-45
2022/05/22 10:10:02;;;;;;;5.70;2.03;;;19.60;59.80;;;;;;5038168;28;20095;-45
2022/05/22 10:13:05;;;;;;;5.72;1.80;;;20.10;61.00;;;;;;5031412;28;20474;-46
2022/05/22 10:15:52;;;;;;;7.40;2.30;;;20.50;57.80;;;;;;5031733;28;20041;-47
2022/05/22 10:18:50;;;;;;;5.18;1.60;;;20.60;54.10;;;;;;5022087;28;20025;-46
2022/05/22 10:21:33;;;;;;;6.60;1.73;;;20.70;52.80;;;;;;5031021;28;20041;-46
2022/05/22 10:24:36;;;;;;;3.53;1.38;;;20.90;52.80;;;;;;5030295;28;20047;-46
2022/05/22 10:27:24;;;;;;;5.97;2.25;;;20.50;53.40;;;;;;5033818;28;20026;-49
2022/05/22 10:30:00;;;;;;;6.22;1.85;;;20.40;56.20;;;;;;5029001;28;20048;-50
2022/05/22 10:33:02;;;;;;;4.45;1.75;;;20.70;58.00;;;;;;5031125;28;20033;-46
2022/05/22 10:35:58;;;;;;;5.50;1.73;;;21.10;54.10;;;;;;5031883;28;20083;-47
2022/05/22 10:38:38;;;;;;;7.45;1.85;;;21.40;51.50;;;;;;5029998;28;20025;-50
2022/05/22 10:44:40;;;;;;;5.00;1.30;;;21.50;51.10;;;;;;5012290;28;20036;-48
2022/05/22 10:47:09;;;;;;;7.32;2.65;;;20.90;56.60;;;;;;5033730;28;20394;-50
2022/05/22 10:49:45;;;;;;;6.30;2.13;;;20.30;54.90;;;;;;5037917;28;20024;-50
2022/05/22 10:52:24;;;;;;;8.13;2.25;;;20.40;58.10;;;;;;5041093;28;20466;-45
2022/05/22 10:54:53;;;;;;;9.85;2.05;;;20.30;60.40;;;;;;5051653;28;20032;-45
2022/05/22 10:57:31;;;;;;;5.82;1.92;;;20.40;60.20;;;;;;5035488;28;20041;-46
2022/05/22 11:00:09;;;;;;;6.05;1.52;;;20.40;55.30;;;;;;5029802;28;20374;-46
2022/05/22 11:02:36;;;;;;;6.68;1.95;;;20.60;55.00;;;;;;5017978;28;20056;-47
2022/05/22 11:05:18;;;;;;;6.93;1.80;;;20.90;57.50;;;;;;5045015;28;20029;-47
2022/05/22 11:08:03;;;;;;;5.47;1.45;;;20.90;52.90;;;;;;5032648;28;20511;-45
2022/05/22 11:10:37;;;;;;;5.35;1.65;;;20.70;54.20;;;;;;5046563;28;20116;-45
2022/05/22 11:13:26;;;;;;;6.38;1.83;;;20.90;58.10;;;;;;5043242;28;20029;-45
2022/05/22 11:15:53;;;;;;;6.63;1.63;;;20.90;56.10;;;;;;5036187;28;20040;-48
2022/05/22 11:18:25;;;;;;;4.30;1.35;;;21.10;55.70;;;;;;5030245;28;20101;-45
2022/05/22 11:21:27;;;;;;;6.00;1.58;;;20.90;54.80;;;;;;5031965;28;20116;-46
2022/05/22 11:24:40;;;;;;;5.70;1.67;;;20.60;55.70;;;;;;5039171;28;20061;-48
2022/05/22 11:27:43;;;;;;;6.70;1.63;;;20.40;53.70;;;;;;5031289;28;20118;-47
2022/05/22 11:30:29;;;;;;;3.42;1.27;;;20.60;56.60;;;;;;5030686;28;20421;-47
2022/05/22 11:33:20;;;;;;;4.78;1.50;;;20.80;56.80;;;;;;5043507;28;20025;-46
2022/05/22 11:36:21;;;;;;;7.63;1.95;;;20.90;51.90;;;;;;5018108;28;20038;-45
2022/05/22 11:39:35;;;;;;;4.28;1.63;;;20.90;55.80;;;;;;5011138;28;20454;-45
2022/05/22 11:42:25;;;;;;;6.45;1.27;;;20.70;53.60;;;;;;5023670;28;20063;-46
2022/05/22 11:45:27;;;;;;;6.30;1.63;;;20.90;57.40;;;;;;5042600;28;20037;-45
2022/05/22 11:48:24;;;;;;;5.05;1.25;;;20.80;56.20;;;;;;5025785;28;20512;-46
2022/05/22 11:51:29;;;;;;;6.05;1.58;;;20.80;56.40;;;;;;5029486;28;20378;-45
2022/05/22 11:54:33;;;;;;;9.93;1.77;;;20.90;56.60;;;;;;5020348;28;20116;-46
2022/05/22 11:57:57;;;;;;;7.13;2.08;;;20.60;57.30;;;;;;5028887;28;20044;-46
2022/05/22 12:00:32;;;;;;;5.00;1.50;;;20.30;54.30;;;;;;5011191;28;20111;-45
2022/05/22 12:03:16;;;;;;;5.72;1.42;;;20.00;58.00;;;;;;5005425;28;20059;-46
2022/05/22 12:06:20;;;;;;;5.90;2.00;;;20.00;56.30;;;;;;5027916;28;20478;-48
2022/05/22 12:09:07;;;;;;;4.45;1.52;;;20.10;54.50;;;;;;5024047;28;20045;-45
2022/05/22 12:12:04;;;;;;;7.18;1.50;;;19.90;54.80;;;;;;5011525;28;20392;-47
2022/05/22 12:15:06;;;;;;;5.45;1.55;;;19.90;56.60;;;;;;5005522;28;20085;-45
2022/05/22 12:17:50;;;;;;;6.90;2.40;;;20.20;57.60;;;;;;5019943;28;20040;-46
2022/05/22 12:20:24;;;;;;;4.93;1.42;;;19.90;57.30;;;;;;5008243;28;20132;-45
2022/05/22 12:23:13;;;;;;;5.18;1.30;;;20.10;57.90;;;;;;5025258;28;20399;-45
2022/05/22 12:25:49;;;;;;;5.57;1.58;;;20.00;55.70;;;;;;5020924;28;20038;-48
2022/05/22 12:28:36;;;;;;;5.82;1.65;;;20.00;56.40;;;;;;5008467;28;20122;-46
2022/05/22 12:31:11;;;;;;;5.78;2.30;;;19.90;56.30;;;;;;5007716;28;20112;-47
2022/05/22 12:33:38;;;;;;;6.57;1.92;;;19.90;55.90;;;;;;5028256;28;20700;-45
2022/05/22 12:36:07;;;;;;;6.95;1.60;;;19.90;58.30;;;;;;5047420;28;20104;-46
2022/05/22 12:38:44;;;;;;;6.90;2.07;;;19.90;59.60;;;;;;5036320;28;20025;-45
2022/05/22 12:41:18;;;;;;;3.88;1.40;;;19.80;61.50;;;;;;5027953;28;20288;-45
2022/05/22 12:43:45;;;;;;;6.25;1.50;;;19.70;59.40;;;;;;5047951;28;20043;-45
2022/05/22 12:46:12;;;;;;;5.45;1.35;;;19.80;60.60;;;;;;5030693;28;20021;-45
2022/05/22 12:48:44;;;;;;;7.82;1.90;;;19.80;58.30;;;;;;5049632;28;20038;-45
2022/05/22 12:51:10;;;;;;;8.82;1.98;;;19.60;61.60;;;;;;5045598;28;20049;-45
2022/05/22 12:53:46;;;;;;;5.50;1.77;;;19.40;58.50;;;;;;5049728;28;20079;-45
2022/05/22 12:56:27;;;;;;;7.60;1.65;;;19.30;59.60;;;;;;5034261;28;20500;-45
2022/05/22 12:58:59;;;;;;;5.43;1.33;;;19.40;61.20;;;;;;5032086;28;20535;-47
2022/05/22 13:01:39;;;;;;;4.25;1.30;;;19.20;61.80;;;;;;5038654;28;20095;-45
2022/05/22 13:04:20;;;;;;;5.75;1.48;;;19.40;61.80;;;;;;5044629;28;20360;-46
2022/05/22 13:07:11;;;;;;;6.60;1.60;;;19.30;61.80;;;;;;5037198;28;20487;-45
2022/05/22 13:09:56;;;;;;;5.00;1.45;;;19.20;60.90;;;;;;5034886;28;20021;-47
2022/05/22 13:12:32;;;;;;;6.80;2.15;;;19.30;60.60;;;;;;5042833;28;20026;-45
2022/05/22 13:15:06;;;;;;;4.82;1.30;;;19.00;60.10;;;;;;5046521;28;20047;-46
2022/05/22 13:17:50;;;;;;;7.05;2.03;;;19.10;59.70;;;;;;5047308;28;20043;-46
2022/05/22 13:20:37;;;;;;;7.45;1.48;;;18.90;62.40;;;;;;5029212;28;20095;-46
2022/05/22 13:23:24;;;;;;;4.68;1.73;;;19.00;62.80;;;;;;5009526;28;20038;-45
2022/05/22 13:26:14;;;;;;;7.47;2.08;;;19.00;61.90;;;;;;5020176;28;20057;-46
2022/05/22 13:29:11;;;;;;;4.22;1.27;;;18.90;59.80;;;;;;5045197;28;20054;-45
2022/05/22 13:31:49;;;;;;;6.50;1.88;;;19.10;60.70;;;;;;5032254;28;20025;-45
2022/05/22 13:34:36;;;;;;;5.72;1.65;;;18.90;61.40;;;;;;5047772;28;20082;-45
2022/05/22 13:37:06;;;;;;;6.20;1.65;;;18.70;61.20;;;;;;5046385;28;20782;-45
2022/05/22 13:39:54;;;;;;;;;;;18.70;65.10;;;;;;5033357;28;20045;-46